createdAt,value
2023-04-03T00:01:37.435Z,79.02
2023-04-03T00:06:36.441Z,77.62
2023-04-03T00:11:35.354Z,77.62
2023-04-03T00:16:34.367Z,78.39
2023-04-03T00:21:33.231Z,78.50
2023-04-03T00:26:32.189Z,79.55
2023-04-03T00:31:31.183Z,79.69
2023-04-03T00:36:30.293Z,80.42
2023-04-03T00:41:29.073Z,80.94
2023-04-03T00:46:28.090Z,80.84
2023-04-03T00:51:27.181Z,80.63
2023-04-03T00:56:25.917Z,80.42
2023-04-03T01:01:24.944Z,79.48
2023-04-03T01:06:23.846Z,79.72
2023-04-03T01:11:22.831Z,80.67
2023-04-03T01:16:21.757Z,80.25
2023-04-03T01:21:20.651Z,79.41
2023-04-03T01:26:19.596Z,80.08
2023-04-03T01:31:18.571Z,80.29
2023-04-03T01:36:17.507Z,80.91
2023-04-03T01:41:16.429Z,80.29
2023-04-03T01:46:15.579Z,79.76
2023-04-03T01:51:14.487Z,79.76
2023-04-03T01:56:13.434Z,80.22
2023-04-03T02:01:12.282Z,79.90
2023-04-03T02:06:12.778Z,79.80
2023-04-03T02:11:10.128Z,79.90
2023-04-03T02:16:09.166Z,79.69
2023-04-03T02:21:08.038Z,80.04
2023-04-03T02:26:07.001Z,80.15
2023-04-03T02:31:06.007Z,81.24
2023-04-03T02:36:04.964Z,81.55
2023-04-03T02:41:03.874Z,82.07
2023-04-03T02:46:02.942Z,82.11
2023-04-03T02:51:01.753Z,82.43
2023-04-03T02:56:00.720Z,81.34
2023-04-03T03:00:59.672Z,81.24
2023-04-03T03:05:58.582Z,80.40
2023-04-03T03:10:57.556Z,79.97
2023-04-03T03:15:56.491Z,79.45
2023-04-03T03:20:55.457Z,80.33
2023-04-03T03:25:54.392Z,81.52
2023-04-03T03:30:53.378Z,81.52
2023-04-03T03:35:52.382Z,81.94
2023-04-03T03:40:51.266Z,82.26
2023-04-03T03:45:50.228Z,82.68
2023-04-03T03:50:49.207Z,82.36
2023-04-03T03:55:48.134Z,80.79
2023-04-03T04:00:47.096Z,80.57
2023-04-03T04:05:46.067Z,80.99
2023-04-03T04:10:44.978Z,82.04
2023-04-03T04:15:43.921Z,82.04
2023-04-03T04:20:42.855Z,81.31
2023-04-03T04:25:41.793Z,81.94
2023-04-03T04:30:40.797Z,81.73
2023-04-03T04:35:40.027Z,80.99
2023-04-03T04:40:38.730Z,82.04
2023-04-03T04:45:37.923Z,82.04
2023-04-03T04:50:36.565Z,82.78
2023-04-03T04:55:35.746Z,82.46
2023-04-03T05:00:34.703Z,81.70
2023-04-03T05:05:33.429Z,81.48
2023-04-03T05:10:32.366Z,80.96
2023-04-03T05:15:31.300Z,81.34
2023-04-03T05:20:30.276Z,75.60
2023-04-03T05:25:29.220Z,68.82
2023-04-03T05:30:28.160Z,71.45
2023-04-03T05:35:27.170Z,73.68
2023-04-03T05:40:26.120Z,74.07
2023-04-03T05:45:25.471Z,77.10
2023-04-03T05:50:24.000Z,79.44
2023-04-03T05:55:22.972Z,80.04
2023-04-03T06:00:21.865Z,80.46
2023-04-03T06:05:20.803Z,79.86
2023-04-03T06:10:19.771Z,77.34
2023-04-03T06:15:18.734Z,73.86
2023-04-03T06:20:17.745Z,62.98
2023-04-03T06:25:16.666Z,52.83
2023-04-03T06:30:15.601Z,52.31
2023-04-03T06:35:14.553Z,49.46
2023-04-03T06:40:13.510Z,46.80
2023-04-03T06:45:12.454Z,45.29
2023-04-03T06:50:11.597Z,43.73
2023-04-03T06:55:10.418Z,43.52
2023-04-03T07:00:09.279Z,43.94
2023-04-03T07:05:08.372Z,44.33
2023-04-03T07:10:07.202Z,48.41
2023-04-03T07:15:06.092Z,58.03
2023-04-03T07:20:05.085Z,61.36
2023-04-03T07:25:04.225Z,61.10
2023-04-03T07:30:02.952Z,63.67
2023-04-03T07:35:02.791Z,62.45
2023-04-03T07:40:00.830Z,61.38
2023-04-03T07:44:59.797Z,59.99
2023-04-03T07:49:58.717Z,60.19
2023-04-03T07:54:57.736Z,58.97
2023-04-03T07:59:56.628Z,56.99
2023-04-03T08:04:55.778Z,56.37
2023-04-03T08:09:54.547Z,55.11
2023-04-03T08:14:53.562Z,52.98
2023-04-03T08:19:52.449Z,52.18
2023-04-03T08:24:58.471Z,51.97
2023-04-03T08:29:50.480Z,52.57
2023-04-03T08:34:49.320Z,51.32
2023-04-03T08:39:48.226Z,50.05
2023-04-03T08:44:47.210Z,50.73
2023-04-03T08:49:46.283Z,51.37
2023-04-03T08:54:45.103Z,51.89
2023-04-03T08:59:44.068Z,51.89
2023-04-03T09:04:43.035Z,51.79
2023-04-03T09:09:42.114Z,51.68
2023-04-03T09:14:40.899Z,49.77
2023-04-03T09:19:39.999Z,49.72
2023-04-03T09:24:38.785Z,49.95
2023-04-03T09:29:37.736Z,48.16
2023-04-03T09:34:36.768Z,49.43
2023-04-03T09:39:35.667Z,48.91
2023-04-03T09:44:34.645Z,48.50
2023-04-03T09:49:33.556Z,50.55
2023-04-03T09:54:32.520Z,48.06
2023-04-03T09:59:31.452Z,48.60
2023-04-03T10:04:30.521Z,49.02
2023-04-03T10:09:29.342Z,48.50
2023-04-03T10:14:28.338Z,49.74
2023-04-03T10:19:27.289Z,48.81
2023-04-03T10:24:26.165Z,49.22
2023-04-03T10:29:25.131Z,47.98
2023-04-03T10:34:24.071Z,47.96
2023-04-03T10:39:23.095Z,46.69
2023-04-03T10:44:21.949Z,47.68
2023-04-03T10:49:20.985Z,43.29
2023-04-03T10:54:19.905Z,43.80
2023-04-03T10:59:18.826Z,44.04
2023-04-03T11:04:17.771Z,44.74
2023-04-03T11:09:16.750Z,44.65
2023-04-03T11:14:15.696Z,44.86
2023-04-03T11:19:14.678Z,45.67
2023-04-03T11:24:13.563Z,44.14
2023-04-03T11:29:15.811Z,45.78
2023-04-03T11:34:11.474Z,40.91
2023-04-03T11:39:10.380Z,43.16
2023-04-03T11:44:09.362Z,42.24
2023-04-03T11:49:08.311Z,43.21
2023-04-03T11:54:07.257Z,42.69
2023-04-03T11:59:06.234Z,41.93
2023-04-03T12:04:05.318Z,41.55
2023-04-03T12:09:04.162Z,43.62
2023-04-03T12:14:03.335Z,44.86
2023-04-03T12:19:02.009Z,43.31
2023-04-03T12:24:01.000Z,43.52
2023-04-03T12:28:59.905Z,44.55
2023-04-03T12:33:58.853Z,43.73
2023-04-03T12:38:57.846Z,43.93
2023-04-03T12:43:56.757Z,42.58
2023-04-03T12:48:55.706Z,41.96
2023-04-03T12:53:54.852Z,43.10
2023-04-03T12:58:53.569Z,42.90
2023-04-03T13:03:52.630Z,43.31
2023-04-03T13:08:51.493Z,43.52
2023-04-03T13:13:50.409Z,43.29
2023-04-03T13:18:49.370Z,44.34
2023-04-03T13:23:49.220Z,45.07
2023-04-03T13:28:47.256Z,45.48
2023-04-03T13:33:46.217Z,45.28
2023-04-03T13:38:45.196Z,45.48
2023-04-03T13:43:44.134Z,46.91
2023-04-03T13:48:43.040Z,46.40
2023-04-03T13:53:42.011Z,45.48
2023-04-03T13:58:41.039Z,46.21
2023-04-03T14:03:39.903Z,46.21
2023-04-03T14:08:43.488Z,45.90
2023-04-03T14:13:37.833Z,45.47
2023-04-03T14:18:36.786Z,43.73
2023-04-03T14:23:35.702Z,44.14
2023-04-03T14:28:34.667Z,45.15
2023-04-03T14:33:33.614Z,44.45
2023-04-03T14:38:32.555Z,46.42
2023-04-03T14:43:31.488Z,47.14
2023-04-03T14:48:30.543Z,44.86
2023-04-03T14:53:38.411Z,44.65
2023-04-03T14:58:28.324Z,44.14
2023-04-03T15:06:41.728Z,44.04
2023-04-03T15:11:41.698Z,42.90
2023-04-03T15:16:40.638Z,43.41
2023-04-03T15:21:39.586Z,43.41
2023-04-03T15:26:38.515Z,44.96
2023-04-03T15:31:37.510Z,44.96
2023-04-03T15:36:36.456Z,44.34
2023-04-03T15:41:35.388Z,45.20
2023-04-03T15:46:34.404Z,46.64
2023-04-03T15:51:33.349Z,47.06
2023-04-03T15:56:32.201Z,46.85
2023-04-03T16:01:31.225Z,45.61
2023-04-03T16:06:30.108Z,46.15
2023-04-03T16:11:29.069Z,47.19
2023-04-03T16:16:28.035Z,47.81
2023-04-03T16:21:26.976Z,46.98
2023-04-03T16:26:25.980Z,46.46
2023-04-03T16:31:24.976Z,47.08
2023-04-03T16:36:23.995Z,47.60
2023-04-03T16:41:22.881Z,47.71
2023-04-03T16:46:21.854Z,48.22
2023-04-03T16:51:20.734Z,48.22
2023-04-03T16:56:19.911Z,49.37
2023-04-03T17:01:18.615Z,49.16
2023-04-03T17:06:17.607Z,49.39
2023-04-03T17:11:16.473Z,49.39
2023-04-03T17:16:15.548Z,50.12
2023-04-03T17:21:14.403Z,50.95
2023-04-03T17:26:13.338Z,50.74
2023-04-03T17:31:12.284Z,51.05
2023-04-03T17:36:11.301Z,51.17
2023-04-03T17:41:10.239Z,51.69
2023-04-03T17:46:09.269Z,51.90
2023-04-03T17:51:08.107Z,52.62
2023-04-03T17:56:07.077Z,52.11
2023-04-03T18:01:06.075Z,52.11
2023-04-03T18:06:04.992Z,53.15
2023-04-03T18:11:04.092Z,53.98
2023-04-03T18:16:02.904Z,53.98
2023-04-03T18:21:01.815Z,54.73
2023-04-03T18:26:00.769Z,55.35
2023-04-03T18:30:59.720Z,55.98
2023-04-03T18:35:58.673Z,56.21
2023-04-03T18:40:57.629Z,56.93
2023-04-03T18:45:56.580Z,56.83
2023-04-03T18:50:55.464Z,57.24
2023-04-03T18:55:54.738Z,57.35
2023-04-03T19:00:53.480Z,57.87
2023-04-03T19:05:52.284Z,57.67
2023-04-03T19:10:51.369Z,58.39
2023-04-03T19:15:50.200Z,58.18
2023-04-03T19:20:49.154Z,59.25
2023-04-03T19:25:48.085Z,59.14
2023-04-03T19:30:47.303Z,59.88
2023-04-03T19:35:46.070Z,59.88
2023-04-03T19:40:44.918Z,60.19
2023-04-03T19:45:43.920Z,60.29
2023-04-03T19:50:42.860Z,60.08
2023-04-03T19:55:41.885Z,60.39
2023-04-03T20:00:40.930Z,61.12
2023-04-03T20:05:39.674Z,60.91
2023-04-03T20:10:38.708Z,61.33
2023-04-03T20:15:37.638Z,61.22
2023-04-03T20:20:36.672Z,62.08
2023-04-03T20:30:34.409Z,62.92
2023-04-03T20:35:33.371Z,62.81
2023-04-03T20:40:32.329Z,62.60
2023-04-03T20:45:31.285Z,63.12
2023-04-03T20:50:30.213Z,63.12
2023-04-03T20:55:29.145Z,63.43
2023-04-03T21:00:28.212Z,63.98
2023-04-03T21:05:27.063Z,64.09
2023-04-03T21:10:26.016Z,64.29
2023-04-03T21:15:24.948Z,64.64
2023-04-03T21:20:23.916Z,65.06
2023-04-03T21:25:22.952Z,65.58
2023-04-03T21:30:21.804Z,65.89
2023-04-03T21:35:20.782Z,66.41
2023-04-03T21:40:19.778Z,66.86
2023-04-03T21:45:18.684Z,66.86
2023-04-03T21:50:17.608Z,67.27
2023-04-03T21:55:16.821Z,67.79
2023-04-03T22:00:15.545Z,67.79
2023-04-03T22:05:14.533Z,67.93
2023-04-03T22:10:13.460Z,68.55
2023-04-03T22:15:12.373Z,68.03
2023-04-03T22:20:11.316Z,68.87
2023-04-03T22:25:10.254Z,69.70
2023-04-03T22:30:09.212Z,70.56
2023-04-03T22:35:08.173Z,70.88
2023-04-03T22:40:07.131Z,70.04
2023-04-03T22:45:06.095Z,70.46
2023-04-03T22:50:05.023Z,70.25
2023-04-03T22:55:18.162Z,70.78
2023-04-03T23:00:02.964Z,71.33
2023-04-03T23:05:01.833Z,72.89
2023-04-03T23:10:00.884Z,72.78
2023-04-03T23:14:59.857Z,71.78
2023-04-03T23:19:58.741Z,74.38
2023-04-03T23:24:57.672Z,74.84
2023-04-03T23:29:56.625Z,75.15
2023-04-03T23:34:55.614Z,74.66
2023-04-03T23:39:54.539Z,75.29
2023-04-03T23:44:53.506Z,74.87
2023-04-03T23:49:52.473Z,73.93
2023-04-03T23:54:51.433Z,73.62
2023-04-03T23:59:50.338Z,74.59
